createdAt,value
2023-02-11T00:00:40.084Z,10.77
2023-02-11T00:03:08.447Z,9.93
2023-02-11T00:05:36.715Z,10.77
2023-02-11T00:08:04.969Z,11.37
2023-02-11T00:10:33.134Z,12.27
2023-02-11T00:13:01.367Z,10.60
2023-02-11T00:15:29.567Z,10.83
2023-02-11T00:17:59.196Z,10.97
2023-02-11T00:20:27.419Z,12.83
2023-02-11T00:22:55.876Z,11.40
2023-02-11T00:25:24.072Z,10.27
2023-02-11T00:27:52.298Z,10.43
2023-02-11T00:30:20.448Z,10.07
2023-02-11T00:32:48.726Z,10.30
2023-02-11T00:35:18.366Z,9.90
2023-02-11T00:37:46.616Z,10.17
2023-02-11T00:40:16.023Z,8.37
2023-02-11T00:42:44.250Z,9.60
2023-02-11T00:45:13.616Z,10.03
2023-02-11T00:47:41.908Z,8.67
2023-02-11T00:50:10.399Z,9.80
2023-02-11T00:52:39.993Z,9.10
2023-02-11T00:55:08.694Z,11.30
2023-02-11T00:57:36.867Z,12.80
2023-02-11T01:00:05.839Z,11.07
2023-02-11T01:02:34.333Z,9.97
2023-02-11T01:05:02.904Z,9.40
2023-02-11T01:07:31.071Z,9.37
2023-02-11T01:10:00.756Z,9.30
2023-02-11T01:12:28.993Z,8.20
2023-02-11T01:14:57.211Z,10.10
2023-02-11T01:17:25.392Z,8.30
2023-02-11T01:19:53.538Z,10.33
2023-02-11T01:22:21.737Z,8.57
2023-02-11T01:24:50.025Z,8.63
2023-02-11T01:27:19.588Z,8.97
2023-02-11T01:29:47.743Z,8.93
2023-02-11T01:32:16.003Z,12.47
2023-02-11T01:34:44.468Z,7.77
2023-02-11T01:37:12.647Z,10.63
2023-02-11T01:39:40.882Z,8.67
2023-02-11T01:42:09.151Z,9.53
2023-02-11T01:44:40.008Z,8.83
2023-02-11T01:47:08.274Z,8.47
2023-02-11T01:49:38.393Z,7.90
2023-02-11T01:52:08.517Z,7.60
2023-02-11T01:54:55.583Z,9.00
2023-02-11T01:57:27.859Z,8.87
2023-02-11T02:00:03.166Z,8.20
2023-02-11T02:02:34.610Z,8.13
2023-02-11T02:05:06.903Z,7.47
2023-02-11T02:07:38.043Z,8.00
2023-02-11T02:10:08.577Z,8.67
2023-02-11T02:12:36.731Z,9.67
2023-02-11T02:15:19.968Z,7.83
2023-02-11T02:17:51.365Z,11.77
2023-02-11T02:20:30.170Z,9.30
2023-02-11T02:23:07.339Z,10.37
2023-02-11T02:25:50.112Z,7.60
2023-02-11T02:28:29.792Z,7.10
2023-02-11T02:31:19.133Z,8.33
2023-02-11T02:33:54.905Z,7.80
2023-02-11T02:36:25.529Z,9.00
2023-02-11T02:38:55.654Z,7.07
2023-02-11T02:41:25.454Z,7.20
2023-02-11T02:43:54.335Z,7.20
2023-02-11T02:46:24.086Z,7.30
2023-02-11T02:48:54.994Z,6.80
2023-02-11T02:51:30.466Z,7.23
2023-02-11T02:54:02.800Z,6.47
2023-02-11T02:56:33.701Z,8.03
2023-02-11T02:59:09.731Z,6.90
2023-02-11T03:01:42.189Z,6.23
2023-02-11T03:04:17.976Z,6.97
2023-02-11T03:06:50.201Z,6.70
2023-02-11T03:09:22.438Z,6.37
2023-02-11T03:11:50.762Z,6.43
2023-02-11T03:14:19.992Z,5.83
2023-02-11T03:16:50.155Z,6.67
2023-02-11T03:19:21.530Z,6.53
2023-02-11T03:21:51.723Z,6.70
2023-02-11T03:24:22.516Z,8.47
2023-02-11T03:26:51.473Z,6.60
2023-02-11T03:29:26.925Z,9.20
2023-02-11T03:31:57.997Z,6.87
2023-02-11T03:34:29.607Z,5.17
2023-02-11T03:37:00.132Z,5.70
2023-02-11T03:39:30.609Z,5.10
2023-02-11T03:42:00.708Z,5.87
2023-02-11T03:44:31.837Z,5.93
2023-02-11T03:47:01.035Z,5.20
2023-02-11T03:49:31.519Z,5.67
2023-02-11T03:51:59.948Z,4.93
2023-02-11T03:54:29.858Z,6.37
2023-02-11T03:56:59.345Z,4.73
2023-02-11T03:59:27.685Z,6.57
2023-02-11T04:01:57.653Z,5.43
2023-02-11T04:04:25.890Z,4.43
2023-02-11T04:06:55.434Z,5.10
2023-02-11T04:09:24.162Z,5.33
2023-02-11T04:11:52.329Z,4.60
2023-02-11T04:14:20.489Z,4.50
2023-02-11T04:16:48.682Z,4.67
2023-02-11T04:19:16.892Z,4.70
2023-02-11T04:21:45.066Z,4.60
2023-02-11T04:24:14.637Z,5.27
2023-02-11T04:26:42.833Z,5.37
2023-02-11T04:29:11.050Z,5.53
2023-02-11T04:31:39.355Z,7.27
2023-02-11T04:34:07.658Z,4.83
2023-02-11T04:36:36.013Z,5.70
2023-02-11T04:39:04.336Z,4.70
2023-02-11T04:41:33.933Z,5.10
2023-02-11T04:44:02.115Z,4.57
2023-02-11T04:46:30.396Z,5.20
2023-02-11T04:48:58.748Z,4.40
2023-02-11T04:51:26.919Z,4.83
2023-02-11T04:53:55.106Z,6.40
2023-02-11T04:56:23.325Z,6.13
2023-02-11T04:58:52.917Z,5.87
2023-02-11T05:01:21.140Z,4.50
2023-02-11T05:03:49.388Z,5.40
2023-02-11T05:06:17.546Z,6.03
2023-02-11T05:08:45.747Z,5.30
2023-02-11T05:11:16.788Z,4.77
2023-02-11T05:13:45.159Z,6.00
2023-02-11T05:16:14.929Z,4.60
2023-02-11T05:18:43.745Z,6.77
2023-02-11T05:21:12.837Z,4.73
2023-02-11T05:23:41.096Z,4.93
2023-02-11T05:26:09.724Z,5.43
2023-02-11T05:28:37.990Z,5.90
2023-02-11T05:31:07.123Z,5.93
2023-02-11T05:33:36.682Z,4.27
2023-02-11T05:36:06.910Z,4.57
2023-02-11T05:38:35.164Z,5.00
2023-02-11T05:41:03.455Z,4.37
2023-02-11T05:43:31.670Z,4.03
2023-02-11T05:45:59.929Z,4.67
2023-02-11T05:48:28.224Z,5.30
2023-02-11T05:50:57.799Z,4.80
2023-02-11T05:53:26.040Z,5.57
2023-02-11T05:55:54.271Z,5.27
2023-02-11T05:58:22.463Z,4.97
2023-02-11T06:00:50.608Z,5.47
2023-02-11T06:03:18.886Z,3.93
2023-02-11T06:05:47.227Z,4.53
2023-02-11T06:08:16.805Z,5.83
2023-02-11T06:10:46.266Z,4.77
2023-02-11T06:13:14.495Z,4.40
2023-02-11T06:15:42.780Z,5.10
2023-02-11T06:18:11.033Z,4.37
2023-02-11T06:20:41.722Z,6.73
2023-02-11T06:23:10.195Z,5.23
2023-02-11T06:25:39.981Z,5.03
2023-02-11T06:28:08.592Z,5.33
2023-02-11T06:30:37.866Z,5.37
2023-02-11T06:33:06.144Z,6.33
2023-02-11T06:35:35.434Z,5.07
2023-02-11T06:38:03.735Z,6.93
2023-02-11T06:40:31.908Z,4.90
2023-02-11T06:43:01.418Z,5.20
2023-02-11T06:45:29.586Z,4.43
2023-02-11T06:47:57.787Z,5.13
2023-02-11T06:50:25.959Z,4.13
2023-02-11T06:52:54.094Z,7.30
2023-02-11T06:55:22.299Z,5.27
2023-02-11T06:57:50.460Z,4.27
2023-02-11T07:00:20.444Z,4.10
2023-02-11T07:02:48.721Z,3.83
2023-02-11T07:05:16.936Z,3.80
2023-02-11T07:07:45.173Z,4.67
2023-02-11T07:10:13.348Z,4.53
2023-02-11T07:12:41.579Z,3.50
2023-02-11T07:15:10.254Z,3.80
2023-02-11T07:17:39.843Z,5.43
2023-02-11T07:20:09.132Z,3.57
2023-02-11T07:22:37.435Z,3.23
2023-02-11T07:25:05.870Z,3.70
2023-02-11T07:27:34.139Z,3.20
2023-02-11T07:30:03.380Z,4.90
2023-02-11T07:32:32.597Z,3.93
2023-02-11T07:35:02.222Z,3.20
2023-02-11T07:37:30.412Z,5.40
2023-02-11T07:39:58.620Z,5.53
2023-02-11T07:42:26.809Z,5.80
2023-02-11T07:44:55.032Z,3.67
2023-02-11T07:47:23.182Z,5.73
2023-02-11T07:49:51.339Z,4.33
2023-02-11T07:52:20.921Z,3.77
2023-02-11T07:54:50.180Z,4.70
2023-02-11T07:57:18.337Z,3.60
2023-02-11T07:59:46.593Z,3.97
2023-02-11T08:02:14.820Z,3.97
2023-02-11T08:04:43.067Z,3.50
2023-02-11T08:07:11.241Z,4.20
2023-02-11T08:09:40.767Z,4.10
2023-02-11T08:12:09.040Z,4.90
2023-02-11T08:14:37.497Z,7.53
2023-02-11T08:17:05.769Z,4.10
2023-02-11T08:19:35.239Z,4.33
2023-02-11T08:22:04.055Z,4.30
2023-02-11T08:24:32.291Z,4.20
2023-02-11T08:27:01.823Z,4.57
2023-02-11T08:29:30.608Z,4.60
2023-02-11T08:31:58.853Z,4.53
2023-02-11T08:34:27.082Z,4.27
2023-02-11T08:36:55.245Z,3.60
2023-02-11T08:39:23.919Z,4.63
2023-02-11T08:41:53.281Z,6.40
2023-02-11T08:44:23.361Z,5.73
2023-02-11T08:46:52.435Z,6.10
2023-02-11T08:49:21.177Z,7.97
2023-02-11T08:51:49.495Z,4.50
2023-02-11T08:54:17.704Z,4.47
2023-02-11T08:56:45.952Z,4.83
2023-02-11T08:59:14.852Z,4.70
2023-02-11T09:01:44.837Z,4.33
2023-02-11T09:04:13.146Z,8.37
2023-02-11T09:06:41.685Z,5.10
2023-02-11T09:09:11.945Z,4.20
2023-02-11T09:11:40.625Z,7.37
2023-02-11T09:14:08.937Z,6.70
2023-02-11T09:16:38.174Z,5.13
2023-02-11T09:19:07.765Z,4.90
2023-02-11T09:21:36.017Z,4.03
2023-02-11T09:24:04.192Z,5.43
2023-02-11T09:26:35.792Z,3.77
2023-02-11T09:29:04.809Z,5.10
2023-02-11T09:31:33.810Z,4.33
2023-02-11T09:34:03.604Z,4.90
2023-02-11T09:36:33.885Z,8.23
2023-02-11T09:39:02.732Z,4.10
2023-02-11T09:41:37.287Z,4.03
2023-02-11T09:44:06.963Z,8.17
2023-02-11T09:46:37.268Z,5.50
2023-02-11T09:49:06.463Z,4.93
2023-02-11T09:51:37.861Z,5.07
2023-02-11T09:54:09.474Z,5.20
2023-02-11T09:56:38.144Z,4.80
2023-02-11T09:59:06.460Z,5.00
2023-02-11T10:01:40.279Z,5.57
2023-02-11T10:04:15.402Z,6.00
2023-02-11T10:06:46.503Z,5.73
2023-02-11T10:09:20.283Z,8.83
2023-02-11T10:11:52.876Z,6.43
2023-02-11T10:14:27.419Z,9.20
2023-02-11T10:17:00.595Z,9.03
2023-02-11T10:19:37.668Z,8.90
2023-02-11T10:22:12.426Z,6.73
2023-02-11T10:24:41.382Z,6.60
2023-02-11T10:27:16.886Z,6.37
2023-02-11T10:29:47.983Z,10.00
2023-02-11T10:32:21.037Z,6.77
2023-02-11T10:34:49.248Z,7.17
2023-02-11T10:37:18.896Z,6.70
2023-02-11T10:39:47.090Z,9.70
2023-02-11T10:42:15.868Z,7.20
2023-02-11T10:44:45.739Z,6.23
2023-02-11T10:47:16.020Z,7.10
2023-02-11T10:49:44.827Z,6.40
2023-02-11T10:52:19.535Z,7.00
2023-02-11T10:55:07.110Z,8.50
2023-02-11T10:57:36.544Z,5.67
2023-02-11T11:00:08.245Z,6.80
2023-02-11T11:02:43.965Z,7.03
2023-02-11T11:05:17.545Z,6.53
2023-02-11T11:07:54.154Z,8.17
2023-02-11T11:10:31.323Z,7.03
2023-02-11T11:12:59.499Z,6.97
2023-02-11T11:15:28.664Z,8.00
2023-02-11T11:18:21.540Z,6.83
2023-02-11T11:20:57.704Z,7.10
2023-02-11T11:23:26.117Z,7.33
2023-02-11T11:26:03.425Z,7.37
2023-02-11T11:28:33.561Z,6.80
2023-02-11T11:31:02.184Z,7.13
2023-02-11T11:33:31.468Z,9.00
2023-02-11T11:36:02.054Z,6.87
2023-02-11T11:38:30.569Z,7.07
2023-02-11T11:41:17.568Z,9.17
2023-02-11T11:43:56.615Z,7.90
2023-02-11T11:46:26.151Z,8.13
2023-02-11T11:48:58.192Z,12.20
2023-02-11T11:51:26.702Z,7.70
2023-02-11T11:53:56.722Z,9.37
2023-02-11T11:56:26.272Z,6.37
2023-02-11T11:58:56.507Z,5.80
2023-02-11T12:01:30.522Z,7.13
2023-02-11T12:04:13.633Z,5.57
2023-02-11T12:06:44.034Z,6.57
2023-02-11T12:09:17.464Z,7.47
2023-02-11T12:12:01.716Z,8.13
2023-02-11T12:14:39.122Z,5.30
2023-02-11T12:17:10.087Z,5.70
2023-02-11T12:19:52.378Z,9.10
2023-02-11T12:22:26.837Z,7.53
2023-02-11T12:25:18.114Z,6.37
2023-02-11T12:27:51.339Z,6.03
2023-02-11T12:30:34.722Z,6.57
2023-02-11T12:33:07.872Z,6.20
2023-02-11T12:35:41.920Z,7.20
2023-02-11T12:38:18.762Z,9.03
2023-02-11T12:40:48.557Z,7.00
2023-02-11T12:43:21.326Z,5.17
2023-02-11T12:46:02.434Z,5.93
2023-02-11T12:48:38.349Z,5.00
2023-02-11T12:51:09.105Z,5.37
2023-02-11T12:53:47.738Z,5.40
2023-02-11T12:56:18.319Z,4.57
2023-02-11T12:58:47.510Z,4.60
2023-02-11T13:01:20.680Z,5.60
2023-02-11T13:03:50.254Z,5.07
2023-02-11T13:06:20.464Z,5.30
2023-02-11T13:08:50.096Z,4.77
2023-02-11T13:11:20.567Z,5.13
2023-02-11T13:13:51.390Z,4.50
2023-02-11T13:16:26.638Z,5.80
2023-02-11T13:18:59.268Z,4.50
2023-02-11T13:21:33.411Z,4.63
2023-02-11T13:24:06.385Z,4.40
2023-02-11T13:26:38.609Z,4.47
2023-02-11T13:29:12.786Z,4.73
2023-02-11T13:31:42.448Z,5.20
2023-02-11T13:34:25.103Z,4.80
2023-02-11T13:36:56.635Z,9.30
2023-02-11T13:39:25.026Z,4.47
2023-02-11T13:42:03.564Z,4.77
2023-02-11T13:44:34.520Z,5.80
2023-02-11T13:47:05.745Z,4.97
2023-02-11T13:49:36.410Z,4.20
2023-02-11T13:52:06.506Z,4.57
2023-02-11T13:54:36.406Z,5.30
2023-02-11T13:57:23.148Z,4.00
2023-02-11T13:59:52.591Z,4.13
2023-02-11T14:02:45.371Z,4.60
2023-02-11T14:05:48.493Z,5.90
2023-02-11T14:08:38.770Z,7.77
2023-02-11T14:11:12.242Z,6.00
2023-02-11T14:13:59.204Z,4.17
2023-02-11T14:16:37.585Z,4.53
2023-02-11T14:19:08.631Z,5.90
2023-02-11T14:21:38.187Z,4.87
2023-02-11T14:24:25.489Z,5.80
2023-02-11T14:26:55.833Z,5.00
2023-02-11T14:29:28.159Z,4.33
2023-02-11T14:31:59.478Z,4.80
2023-02-11T14:34:39.679Z,5.37
2023-02-11T14:37:14.368Z,6.80
2023-02-11T14:39:49.436Z,8.30
2023-02-11T14:42:20.849Z,17.73
2023-02-11T14:44:50.281Z,10.90
2023-02-11T14:47:20.413Z,15.00
2023-02-11T14:49:50.330Z,8.17
2023-02-11T14:52:24.322Z,19.33
2023-02-11T14:54:53.078Z,43.93
2023-02-11T14:57:22.290Z,23.33
2023-02-11T14:59:58.857Z,7.47
2023-02-11T15:02:29.899Z,7.07
2023-02-11T15:05:14.343Z,24.93
2023-02-11T15:07:46.212Z,10.83
2023-02-11T15:10:18.606Z,8.17
2023-02-11T15:12:49.635Z,7.50
2023-02-11T15:15:18.454Z,7.67
2023-02-11T15:17:47.055Z,7.77
2023-02-11T15:20:20.483Z,9.83
2023-02-11T15:22:51.172Z,8.63
2023-02-11T15:25:20.156Z,6.67
2023-02-11T15:27:49.640Z,7.13
2023-02-11T15:30:28.640Z,6.57
2023-02-11T15:32:59.885Z,5.43
2023-02-11T15:35:29.133Z,6.70
2023-02-11T15:37:59.330Z,6.40
2023-02-11T15:40:28.940Z,7.90
2023-02-11T15:42:58.775Z,8.50
2023-02-11T15:45:29.753Z,6.97
2023-02-11T15:48:00.563Z,7.77
2023-02-11T15:50:29.835Z,9.57
2023-02-11T15:53:01.751Z,6.80
2023-02-11T15:55:30.666Z,7.77
2023-02-11T15:57:59.603Z,8.63
2023-02-11T16:00:32.915Z,8.80
2023-02-11T16:03:01.332Z,9.97
2023-02-11T16:05:31.233Z,8.10
2023-02-11T16:08:01.410Z,7.93
2023-02-11T16:10:30.754Z,8.83
2023-02-11T16:13:18.282Z,13.47
2023-02-11T16:15:48.120Z,6.50
2023-02-11T16:18:26.441Z,11.00
2023-02-11T16:21:02.789Z,9.93
2023-02-11T16:23:34.739Z,9.60
2023-02-11T16:26:05.626Z,10.63
2023-02-11T16:28:34.138Z,13.77
2023-02-11T16:31:02.747Z,8.17
2023-02-11T16:33:31.084Z,15.33
2023-02-11T16:36:02.116Z,9.60
2023-02-11T16:38:33.944Z,8.43
2023-02-11T16:41:02.178Z,5.70
2023-02-11T16:43:30.360Z,4.97
2023-02-11T16:45:59.735Z,10.90
2023-02-11T16:48:27.934Z,9.43
2023-02-11T16:50:56.317Z,13.13
2023-02-11T16:53:26.057Z,11.70
2023-02-11T16:55:56.343Z,5.80
2023-02-11T16:58:24.525Z,6.00
2023-02-11T17:00:53.088Z,4.47
2023-02-11T17:03:23.429Z,5.70
2023-02-11T17:05:55.704Z,3.87
2023-02-11T17:08:25.118Z,4.07
2023-02-11T17:10:53.701Z,4.20
2023-02-11T17:13:23.497Z,5.60
2023-02-11T17:15:51.954Z,5.00
2023-02-11T17:18:20.367Z,4.90
2023-02-11T17:20:48.784Z,3.63
2023-02-11T17:23:17.053Z,5.30
2023-02-11T17:25:45.274Z,3.73
2023-02-11T17:28:13.461Z,7.20
2023-02-11T17:30:44.004Z,5.70
2023-02-11T17:33:12.363Z,4.40
2023-02-11T17:35:41.541Z,6.03
2023-02-11T17:38:09.710Z,4.37
2023-02-11T17:40:38.181Z,8.60
2023-02-11T17:43:06.469Z,7.97
2023-02-11T17:45:34.664Z,8.23
2023-02-11T17:48:04.295Z,4.30
2023-02-11T17:50:32.486Z,4.90
2023-02-11T17:53:00.720Z,4.50
2023-02-11T17:55:28.873Z,5.17
2023-02-11T17:57:57.054Z,4.43
2023-02-11T18:00:25.659Z,6.43
2023-02-11T18:02:56.474Z,3.70
2023-02-11T18:05:28.764Z,7.07
2023-02-11T18:07:56.997Z,4.77
2023-02-11T18:10:25.211Z,3.93
2023-02-11T18:12:53.387Z,6.07
2023-02-11T18:15:21.598Z,5.20
2023-02-11T18:17:49.750Z,6.00
2023-02-11T18:20:18.189Z,4.10
2023-02-11T18:22:47.811Z,3.63
2023-02-11T18:25:16.748Z,5.07
2023-02-11T18:27:44.985Z,5.50
2023-02-11T18:30:15.928Z,10.73
2023-02-11T18:32:44.152Z,5.30
2023-02-11T18:35:22.877Z,3.60
2023-02-11T18:37:53.032Z,4.83
2023-02-11T18:40:21.372Z,5.10
2023-02-11T18:42:49.636Z,4.77
2023-02-11T18:45:17.871Z,5.50
2023-02-11T18:47:46.252Z,5.17
2023-02-11T18:50:15.844Z,5.13
2023-02-11T18:52:44.389Z,4.87
2023-02-11T18:55:13.935Z,4.50
2023-02-11T18:57:42.919Z,6.07
2023-02-11T19:00:11.785Z,4.30
2023-02-11T19:02:40.311Z,7.30
2023-02-11T19:05:08.945Z,11.43
2023-02-11T19:07:38.688Z,6.60
2023-02-11T19:10:07.602Z,3.50
2023-02-11T19:12:39.208Z,4.17
2023-02-11T19:15:08.316Z,3.60
2023-02-11T19:17:36.540Z,5.40
2023-02-11T19:20:05.980Z,5.47
2023-02-11T19:22:34.204Z,4.00
2023-02-11T19:25:02.390Z,5.20
2023-02-11T19:27:30.564Z,4.13
2023-02-11T19:30:00.074Z,3.90
2023-02-11T19:32:28.313Z,5.30
2023-02-11T19:34:56.457Z,4.30
2023-02-11T19:37:24.667Z,5.57
2023-02-11T19:39:52.873Z,5.43
2023-02-11T19:42:21.029Z,5.13
2023-02-11T19:44:49.393Z,6.07
2023-02-11T19:47:19.385Z,4.77
2023-02-11T19:49:47.651Z,6.47
2023-02-11T19:52:15.806Z,5.07
2023-02-11T19:54:43.966Z,5.97
2023-02-11T19:57:12.180Z,5.40
2023-02-11T19:59:40.447Z,7.07
2023-02-11T20:02:08.846Z,5.60
2023-02-11T20:04:38.484Z,7.80
2023-02-11T20:07:06.889Z,33.97
2023-02-11T20:09:35.184Z,25.63
2023-02-11T20:12:03.447Z,8.03
2023-02-11T20:14:31.609Z,6.73
2023-02-11T20:16:59.784Z,10.67
2023-02-11T20:19:27.989Z,9.30
2023-02-11T20:21:57.526Z,10.50
2023-02-11T20:24:26.393Z,13.17
2023-02-11T20:26:55.894Z,10.87
2023-02-11T20:29:24.805Z,12.43
2023-02-11T20:31:53.136Z,7.87
2023-02-11T20:34:22.167Z,8.60
2023-02-11T20:36:52.718Z,9.27
2023-02-11T20:39:22.924Z,7.60
2023-02-11T20:41:51.665Z,30.93
2023-02-11T20:44:21.688Z,27.10
2023-02-11T20:46:50.272Z,20.03
2023-02-11T20:49:19.765Z,16.70
2023-02-11T20:51:48.375Z,11.03
2023-02-11T20:54:18.123Z,27.97
2023-02-11T20:56:48.478Z,11.23
2023-02-11T20:59:17.554Z,11.10
2023-02-11T21:01:46.829Z,9.20
2023-02-11T21:04:15.999Z,9.30
2023-02-11T21:06:44.984Z,11.60
2023-02-11T21:09:14.758Z,9.53
2023-02-11T21:11:43.486Z,16.43
2023-02-11T21:14:13.583Z,8.83
2023-02-11T21:16:42.308Z,9.53
2023-02-11T21:19:10.520Z,11.93
2023-02-11T21:21:39.024Z,12.30
2023-02-11T21:24:07.732Z,11.23
2023-02-11T21:26:36.585Z,11.57
2023-02-11T21:29:04.796Z,12.50
2023-02-11T21:31:35.197Z,12.67
2023-02-11T21:34:03.530Z,10.73
2023-02-11T21:36:31.938Z,11.40
2023-02-11T21:39:01.702Z,10.93
2023-02-11T21:41:29.929Z,11.83
2023-02-11T21:43:58.546Z,13.90
2023-02-11T21:46:26.790Z,15.67
2023-02-11T21:48:56.394Z,24.50
2023-02-11T21:51:25.978Z,22.00
2023-02-11T21:53:54.973Z,24.57
2023-02-11T21:56:23.468Z,40.20
2023-02-11T21:58:54.012Z,39.90
2023-02-11T22:01:23.622Z,31.87
2023-02-11T22:03:51.793Z,20.43
2023-02-11T22:06:22.494Z,13.83
2023-02-11T22:08:51.249Z,13.97
2023-02-11T22:11:19.789Z,14.37
2023-02-11T22:13:48.148Z,14.00
2023-02-11T22:16:17.493Z,12.83
2023-02-11T22:18:46.461Z,12.77
2023-02-11T22:21:15.489Z,13.50
2023-02-11T22:23:45.331Z,12.83
2023-02-11T22:26:14.764Z,15.50
2023-02-11T22:28:42.984Z,13.10
2023-02-11T22:31:13.246Z,13.50
2023-02-11T22:33:41.893Z,13.50
2023-02-11T22:36:13.968Z,12.63
2023-02-11T22:38:42.227Z,13.07
2023-02-11T22:41:12.374Z,13.30
2023-02-11T22:43:40.892Z,13.77
2023-02-11T22:46:09.478Z,12.47
2023-02-11T22:48:37.991Z,12.67
2023-02-11T22:51:06.503Z,12.23
2023-02-11T22:53:34.943Z,11.33
2023-02-11T22:56:04.097Z,12.73
2023-02-11T22:58:33.679Z,12.77
2023-02-11T23:01:01.930Z,12.93
2023-02-11T23:03:31.206Z,12.30
2023-02-11T23:05:59.513Z,11.23
2023-02-11T23:08:28.593Z,11.37
2023-02-11T23:10:56.972Z,12.37
2023-02-11T23:13:25.156Z,12.83
2023-02-11T23:15:55.035Z,12.37
2023-02-11T23:18:23.549Z,13.67
2023-02-11T23:20:51.834Z,13.20
2023-02-11T23:23:20.050Z,12.57
2023-02-11T23:25:48.335Z,11.80
2023-02-11T23:28:16.503Z,12.13
2023-02-11T23:30:44.737Z,14.23
2023-02-11T23:33:14.265Z,11.50
2023-02-11T23:35:42.448Z,14.73
2023-02-11T23:38:10.663Z,12.70
2023-02-11T23:40:38.881Z,11.67
2023-02-11T23:43:07.138Z,12.17
2023-02-11T23:45:35.394Z,12.10
2023-02-11T23:48:03.587Z,13.13
2023-02-11T23:50:34.499Z,13.63
2023-02-11T23:53:02.739Z,12.20
2023-02-11T23:55:30.905Z,12.53
2023-02-11T23:57:59.132Z,11.73
